Time;durP1;ratioP1;P1;durP2;ratioP2;P2;SDS_P1;SDS_P2;PMS_P1;PMS_P2;Temp;Humidity;BMP_temperature;BMP_pressure;BME280_temperature;BME280_humidity;BME280_pressure;Samples;Min_cycle;Max_cycle;Signal;HPM_P1;HPM_P2
2022/03/07 00:00:15;;;;;;;13.10;8.55;;;;;;;;;;5051576;28;20029;-73
2022/03/07 00:02:40;;;;;;;14.82;9.80;;;;;;;;;;5051493;28;20028;-72
2022/03/07 00:05:06;;;;;;;15.45;9.20;;;;;;;;;;5051303;28;20481;-72
2022/03/07 00:07:31;;;;;;;16.80;9.82;;;;;;;;;;5052410;28;20032;-72
2022/03/07 00:09:56;;;;;;;13.90;9.27;;;;;;;;;;5052310;28;20116;-73
2022/03/07 00:12:22;;;;;;;16.02;10.43;;;;;;;;;;5052309;28;20524;-72
2022/03/07 00:14:48;;;;;;;15.60;9.65;;;;;;;;;;5034277;28;20544;-72
2022/03/07 00:17:13;;;;;;;16.98;10.88;;;;;;;;;;5034576;28;20035;-72
2022/03/07 00:19:39;;;;;;;16.38;10.50;;;;;;;;;;5052347;28;20108;-72
2022/03/07 00:22:04;;;;;;;16.73;10.10;;;;;;;;;;5052216;28;20021;-72
2022/03/07 00:24:29;;;;;;;14.73;9.55;;;;;;;;;;5050888;28;20568;-72
2022/03/07 00:26:54;;;;;;;20.52;10.52;;;;;;;;;;5052288;28;20044;-73
2022/03/07 00:29:20;;;;;;;15.60;10.45;;;;;;;;;;5051858;28;20037;-72
2022/03/07 00:31:45;;;;;;;16.70;10.43;;;;;;;;;;5033056;28;20045;-72
2022/03/07 00:34:11;;;;;;;16.85;10.60;;;;;;;;;;5052140;28;20036;-72
2022/03/07 00:36:36;;;;;;;19.08;10.32;;;;;;;;;;5051908;28;20028;-72
2022/03/07 00:39:01;;;;;;;16.10;9.85;;;;;;;;;;5050559;28;20039;-72
2022/03/07 00:41:26;;;;;;;14.15;9.23;;;;;;;;;;5050598;28;20028;-72
2022/03/07 00:43:52;;;;;;;15.10;10.60;;;;;;;;;;5051389;28;20033;-72
2022/03/07 00:46:17;;;;;;;19.52;11.30;;;;;;;;;;5050521;28;20036;-72
2022/03/07 00:48:42;;;;;;;19.65;10.07;;;;;;;;;;5050263;28;20052;-72
2022/03/07 00:51:08;;;;;;;18.05;10.38;;;;;;;;;;5051598;28;20432;-72
2022/03/07 00:53:33;;;;;;;17.63;10.50;;;;;;;;;;5051569;28;20452;-72
2022/03/07 00:55:58;;;;;;;18.60;10.43;;;;;;;;;;5033578;28;20507;-72
2022/03/07 00:58:24;;;;;;;17.17;10.75;;;;;;;;;;5033612;28;20021;-72
2022/03/07 01:00:49;;;;;;;17.10;10.82;;;;;;;;;;5050567;28;20028;-72
2022/03/07 01:03:15;;;;;;;16.38;10.23;;;;;;;;;;5051454;28;20029;-72
2022/03/07 01:05:40;;;;;;;19.13;10.95;;;;;;;;;;5050069;28;20056;-72
2022/03/07 01:08:06;;;;;;;17.77;10.80;;;;;;;;;;5051390;28;20043;-72
2022/03/07 01:10:32;;;;;;;20.30;10.82;;;;;;;;;;5049994;28;20021;-72
2022/03/07 01:12:57;;;;;;;17.90;11.00;;;;;;;;;;5049946;28;20158;-72
2022/03/07 01:15:22;;;;;;;14.90;10.00;;;;;;;;;;5051254;28;20016;-72
2022/03/07 01:17:47;;;;;;;20.98;10.70;;;;;;;;;;5049849;28;20025;-72
2022/03/07 01:20:12;;;;;;;15.45;10.40;;;;;;;;;;5049946;28;20035;-72
2022/03/07 01:22:38;;;;;;;17.10;10.00;;;;;;;;;;5051397;28;20096;-72
2022/03/07 01:25:04;;;;;;;17.73;10.88;;;;;;;;;;5049731;28;20493;-72
2022/03/07 01:27:29;;;;;;;17.52;10.57;;;;;;;;;;5050826;28;20036;-72
2022/03/07 01:29:54;;;;;;;17.38;11.38;;;;;;;;;;5050880;28;20055;-72
2022/03/07 01:32:19;;;;;;;15.52;10.80;;;;;;;;;;5050006;28;20121;-72
2022/03/07 01:34:45;;;;;;;16.55;10.68;;;;;;;;;;5050845;28;20024;-72
2022/03/07 01:37:10;;;;;;;19.55;10.98;;;;;;;;;;5050758;28;20021;-72
2022/03/07 01:39:35;;;;;;;19.02;11.05;;;;;;;;;;5049388;28;20029;-72
2022/03/07 01:42:00;;;;;;;18.48;11.73;;;;;;;;;;5050563;28;20098;-72
2022/03/07 01:44:28;;;;;;;18.95;11.20;;;;;;;;;;5050619;28;20029;-72
2022/03/07 01:46:53;;;;;;;16.67;10.32;;;;;;;;;;5050372;28;20037;-72
2022/03/07 01:49:19;;;;;;;18.02;11.23;;;;;;;;;;5050572;28;20052;-72
2022/03/07 01:51:44;;;;;;;15.75;10.45;;;;;;;;;;5050505;28;20034;-72
2022/03/07 01:54:10;;;;;;;19.63;11.95;;;;;;;;;;5050201;28;20135;-72
2022/03/07 01:56:35;;;;;;;17.88;11.90;;;;;;;;;;5049371;28;20036;-71
2022/03/07 01:59:01;;;;;;;16.60;10.85;;;;;;;;;;5050290;28;20059;-72
2022/03/07 02:01:27;;;;;;;15.80;10.85;;;;;;;;;;5048457;28;20033;-72
2022/03/07 02:03:52;;;;;;;23.88;12.40;;;;;;;;;;5050259;28;20025;-72
2022/03/07 02:06:18;;;;;;;18.80;11.38;;;;;;;;;;5050443;28;20025;-71
2022/03/07 02:08:43;;;;;;;18.85;12.05;;;;;;;;;;5049013;28;20031;-72
2022/03/07 02:11:08;;;;;;;18.38;11.45;;;;;;;;;;5048927;28;20108;-71
2022/03/07 02:13:35;;;;;;;19.05;11.48;;;;;;;;;;5050279;28;20115;-71
2022/03/07 02:16:00;;;;;;;21.98;11.60;;;;;;;;;;5050181;28;20036;-71
2022/03/07 02:18:28;;;;;;;18.50;11.50;;;;;;;;;;5050115;28;20077;-71
2022/03/07 02:20:56;;;;;;;18.27;11.85;;;;;;;;;;5050087;28;20028;-72
2022/03/07 02:23:22;;;;;;;20.00;12.38;;;;;;;;;;5050078;28;20451;-71
2022/03/07 02:25:47;;;;;;;22.05;12.57;;;;;;;;;;5050062;28;20020;-71
2022/03/07 02:28:13;;;;;;;20.02;11.43;;;;;;;;;;5049990;28;20033;-71
2022/03/07 02:30:38;;;;;;;16.77;11.25;;;;;;;;;;5047789;28;20037;-71
2022/03/07 02:33:03;;;;;;;16.77;11.02;;;;;;;;;;5049755;28;20508;-72
2022/03/07 02:35:29;;;;;;;17.55;11.20;;;;;;;;;;5048760;28;20027;-72
2022/03/07 02:37:54;;;;;;;17.73;11.25;;;;;;;;;;5049586;28;20424;-72
2022/03/07 02:40:20;;;;;;;18.52;11.60;;;;;;;;;;5049881;28;20056;-72
2022/03/07 02:42:45;;;;;;;19.02;11.70;;;;;;;;;;5049799;28;20021;-72
2022/03/07 02:45:10;;;;;;;19.33;11.63;;;;;;;;;;5049978;28;20075;-71
2022/03/07 02:47:35;;;;;;;15.32;10.68;;;;;;;;;;5049967;28;20500;-70
2022/03/07 02:50:01;;;;;;;21.35;11.27;;;;;;;;;;5050171;28;20020;-72
2022/03/07 02:52:26;;;;;;;16.50;11.38;;;;;;;;;;5048503;28;20041;-72
2022/03/07 02:54:51;;;;;;;17.42;11.27;;;;;;;;;;5049956;28;20025;-72
2022/03/07 02:57:16;;;;;;;16.88;10.85;;;;;;;;;;5048532;28;20021;-72
2022/03/07 02:59:42;;;;;;;20.10;10.77;;;;;;;;;;5031642;28;20020;-71
2022/03/07 03:02:07;;;;;;;16.50;10.15;;;;;;;;;;5048878;28;20040;-72
2022/03/07 03:04:33;;;;;;;16.08;10.88;;;;;;;;;;5048356;28;20117;-71
2022/03/07 03:06:59;;;;;;;18.98;11.40;;;;;;;;;;5052096;28;20025;-72
2022/03/07 03:09:24;;;;;;;19.95;11.60;;;;;;;;;;5053571;28;20025;-72
2022/03/07 03:11:50;;;;;;;17.60;11.07;;;;;;;;;;5053333;28;20040;-72
2022/03/07 03:14:15;;;;;;;19.60;11.77;;;;;;;;;;5053498;28;20481;-72
2022/03/07 03:16:40;;;;;;;20.38;11.15;;;;;;;;;;5053398;28;20021;-71
2022/03/07 03:19:05;;;;;;;16.20;10.75;;;;;;;;;;5053277;28;20495;-71
2022/03/07 03:21:30;;;;;;;14.35;10.35;;;;;;;;;;5053334;28;20476;-72
2022/03/07 03:23:56;;;;;;;16.45;10.75;;;;;;;;;;5053474;28;20104;-72
2022/03/07 03:26:21;;;;;;;16.27;10.93;;;;;;;;;;5051932;28;20025;-72
2022/03/07 03:28:46;;;;;;;19.00;11.60;;;;;;;;;;5052962;28;20436;-72
2022/03/07 03:31:11;;;;;;;20.17;11.13;;;;;;;;;;5052276;28;20033;-71
2022/03/07 03:33:41;;;;;;;15.00;11.13;;;;;;;;;;5051676;28;20025;-72
2022/03/07 03:36:07;;;;;;;16.95;11.07;;;;;;;;;;5053093;28;20441;-72
2022/03/07 03:38:32;;;;;;;17.73;11.45;;;;;;;;;;5052895;28;20059;-72
2022/03/07 03:40:57;;;;;;;17.48;11.13;;;;;;;;;;5052984;28;20024;-72
2022/03/07 03:43:22;;;;;;;17.98;11.27;;;;;;;;;;5052824;28;20028;-72
2022/03/07 03:45:47;;;;;;;19.45;12.00;;;;;;;;;;5034974;28;20040;-72
2022/03/07 03:48:13;;;;;;;16.98;11.05;;;;;;;;;;5053093;28;20477;-71
2022/03/07 03:50:38;;;;;;;18.65;11.02;;;;;;;;;;5051353;28;20021;-71
2022/03/07 03:53:03;;;;;;;19.23;11.52;;;;;;;;;;5051653;28;20029;-72
2022/03/07 03:55:28;;;;;;;19.75;11.95;;;;;;;;;;5052591;28;20040;-72
2022/03/07 03:57:54;;;;;;;20.95;12.27;;;;;;;;;;5052676;28;20099;-71
2022/03/07 04:00:19;;;;;;;17.80;11.55;;;;;;;;;;5050406;28;20021;-72
2022/03/07 04:02:44;;;;;;;16.92;11.50;;;;;;;;;;5052572;28;20009;-71
2022/03/07 04:05:13;;;;;;;17.63;11.98;;;;;;;;;;5051344;28;20016;-72
2022/03/07 04:07:38;;;;;;;18.65;12.18;;;;;;;;;;5052468;28;20040;-72
2022/03/07 04:10:04;;;;;;;17.48;12.30;;;;;;;;;;5052364;28;20056;-72
2022/03/07 04:12:29;;;;;;;18.88;12.50;;;;;;;;;;5051088;28;20424;-72
2022/03/07 04:14:54;;;;;;;17.73;12.43;;;;;;;;;;5052398;28;20024;-72
2022/03/07 04:17:19;;;;;;;19.40;12.65;;;;;;;;;;5051796;28;20016;-71
2022/03/07 04:19:45;;;;;;;20.98;12.85;;;;;;;;;;5050759;28;20028;-72
2022/03/07 04:22:10;;;;;;;19.38;12.45;;;;;;;;;;5052229;28;20021;-72
2022/03/07 04:24:35;;;;;;;22.98;12.40;;;;;;;;;;5052009;28;20025;-72
2022/03/07 04:27:01;;;;;;;20.05;12.43;;;;;;;;;;5052050;28;20504;-71
2022/03/07 04:29:26;;;;;;;20.50;13.15;;;;;;;;;;5052107;28;20504;-72
2022/03/07 04:31:51;;;;;;;16.95;11.57;;;;;;;;;;5051087;28;20044;-72
2022/03/07 04:34:16;;;;;;;21.20;13.25;;;;;;;;;;5051855;28;20021;-72
2022/03/07 04:36:42;;;;;;;26.77;12.95;;;;;;;;;;5052009;28;20513;-72
2022/03/07 04:39:08;;;;;;;20.13;12.98;;;;;;;;;;5050518;28;20056;-72
2022/03/07 04:41:33;;;;;;;18.80;12.38;;;;;;;;;;5051071;28;20025;-72
2022/03/07 04:43:58;;;;;;;22.67;13.93;;;;;;;;;;5050576;28;20054;-72
2022/03/07 04:46:24;;;;;;;21.25;14.02;;;;;;;;;;5050568;28;20059;-71
2022/03/07 04:48:49;;;;;;;19.25;13.27;;;;;;;;;;5058061;28;20361;-72
2022/03/07 04:51:14;;;;;;;20.05;12.02;;;;;;;;;;5066358;28;20134;-71
2022/03/07 04:53:39;;;;;;;22.58;13.38;;;;;;;;;;5064967;28;20714;-71
2022/03/07 04:56:05;;;;;;;22.48;12.65;;;;;;;;;;5062436;28;20025;-72
2022/03/07 04:58:30;;;;;;;19.60;13.48;;;;;;;;;;5062515;28;20499;-71
2022/03/07 05:00:55;;;;;;;20.55;13.63;;;;;;;;;;5062848;28;20052;-71
2022/03/07 05:03:21;;;;;;;26.85;14.27;;;;;;;;;;5060691;28;20499;-72
2022/03/07 05:05:46;;;;;;;18.67;12.82;;;;;;;;;;5061805;28;20484;-72
2022/03/07 05:08:11;;;;;;;20.88;13.48;;;;;;;;;;5066710;28;20025;-71
2022/03/07 05:10:37;;;;;;;19.15;12.75;;;;;;;;;;5063248;28;20374;-71
2022/03/07 05:13:02;;;;;;;21.00;14.07;;;;;;;;;;5065414;28;20027;-71
2022/03/07 05:15:27;;;;;;;24.00;14.63;;;;;;;;;;5063460;28;20020;-72
2022/03/07 05:17:54;;;;;;;20.05;13.75;;;;;;;;;;5062784;28;20056;-72
2022/03/07 05:20:19;;;;;;;22.33;14.63;;;;;;;;;;5064045;28;20652;-72
2022/03/07 05:22:44;;;;;;;23.45;13.73;;;;;;;;;;5062054;28;20024;-71
2022/03/07 05:25:10;;;;;;;24.55;14.50;;;;;;;;;;5060152;28;20040;-71
2022/03/07 05:27:35;;;;;;;24.80;15.52;;;;;;;;;;5064625;28;20047;-71
2022/03/07 05:30:01;;;;;;;25.23;15.15;;;;;;;;;;5078511;28;20059;-71
2022/03/07 05:32:26;;;;;;;20.30;14.02;;;;;;;;;;5066287;28;20509;-72
2022/03/07 05:34:51;;;;;;;24.52;15.35;;;;;;;;;;5063518;28;20499;-71
2022/03/07 05:37:16;;;;;;;24.80;15.10;;;;;;;;;;5061925;28;20031;-72
2022/03/07 05:39:41;;;;;;;27.02;15.32;;;;;;;;;;5062494;28;20070;-71
2022/03/07 05:42:07;;;;;;;25.25;15.10;;;;;;;;;;5062807;28;20108;-71
2022/03/07 05:44:32;;;;;;;24.25;15.18;;;;;;;;;;5064065;28;20040;-71
2022/03/07 05:46:57;;;;;;;23.90;15.75;;;;;;;;;;5066281;28;20055;-72
2022/03/07 05:49:22;;;;;;;24.75;15.57;;;;;;;;;;5064149;28;20107;-72
2022/03/07 05:51:47;;;;;;;26.35;15.80;;;;;;;;;;5062914;28;20485;-71
2022/03/07 05:54:13;;;;;;;24.63;15.45;;;;;;;;;;5063994;28;20028;-71
2022/03/07 05:56:38;;;;;;;24.38;15.35;;;;;;;;;;5064540;28;20032;-71
2022/03/07 05:59:03;;;;;;;28.98;16.20;;;;;;;;;;5064912;28;20025;-72
2022/03/07 06:01:28;;;;;;;27.73;15.93;;;;;;;;;;5060652;28;20017;-72
2022/03/07 06:03:53;;;;;;;25.20;15.35;;;;;;;;;;5066199;28;20084;-72
2022/03/07 06:06:19;;;;;;;22.58;15.40;;;;;;;;;;5060621;28;20029;-72
2022/03/07 06:08:44;;;;;;;25.52;16.23;;;;;;;;;;5062870;28;20051;-72
2022/03/07 06:11:09;;;;;;;29.30;17.02;;;;;;;;;;5061572;28;20481;-72
2022/03/07 06:13:34;;;;;;;26.73;16.02;;;;;;;;;;5064400;28;20021;-72
2022/03/07 06:15:59;;;;;;;26.02;16.02;;;;;;;;;;5061756;28;20048;-72
2022/03/07 06:18:25;;;;;;;29.05;16.90;;;;;;;;;;5062561;28;20040;-71
2022/03/07 06:20:50;;;;;;;28.67;16.58;;;;;;;;;;5063001;28;20365;-72
2022/03/07 06:23:15;;;;;;;33.03;18.00;;;;;;;;;;5057559;28;20505;-71
2022/03/07 06:25:41;;;;;;;28.35;17.58;;;;;;;;;;5063033;28;20027;-71
2022/03/07 06:28:06;;;;;;;27.88;17.63;;;;;;;;;;5065298;28;20130;-72
2022/03/07 06:30:31;;;;;;;27.65;17.00;;;;;;;;;;5058326;28;21089;-72
2022/03/07 06:32:56;;;;;;;29.27;17.73;;;;;;;;;;5061718;28;20628;-72
2022/03/07 06:35:22;;;;;;;28.23;16.45;;;;;;;;;;5064159;28;20427;-71
2022/03/07 06:37:47;;;;;;;29.92;16.95;;;;;;;;;;5060381;28;20074;-72
2022/03/07 06:40:13;;;;;;;26.70;16.42;;;;;;;;;;5044914;28;20392;-71
2022/03/07 06:42:38;;;;;;;31.77;17.23;;;;;;;;;;5067000;28;20028;-71
2022/03/07 06:45:03;;;;;;;31.77;17.48;;;;;;;;;;5068332;28;20017;-72
2022/03/07 06:47:28;;;;;;;33.50;17.23;;;;;;;;;;5064946;28;20028;-73
2022/03/07 06:49:57;;;;;;;27.15;16.25;;;;;;;;;;5066923;28;20036;-73
2022/03/07 06:52:22;;;;;;;29.27;16.75;;;;;;;;;;5064443;28;20028;-73
2022/03/07 06:54:47;;;;;;;26.63;16.02;;;;;;;;;;5068389;28;20481;-71
2022/03/07 06:57:12;;;;;;;26.65;15.93;;;;;;;;;;5069541;28;20189;-72
2022/03/07 06:59:37;;;;;;;28.90;17.27;;;;;;;;;;5062713;28;20024;-72
2022/03/07 07:02:03;;;;;;;26.70;16.50;;;;;;;;;;5065999;28;20052;-72
2022/03/07 07:04:28;;;;;;;22.15;14.32;;;;;;;;;;5064207;28;20054;-73
2022/03/07 07:06:53;;;;;;;26.73;14.88;;;;;;;;;;5062872;28;20021;-72
2022/03/07 07:09:18;;;;;;;26.52;14.88;;;;;;;;;;5065489;28;20032;-73
2022/03/07 07:11:43;;;;;;;29.35;16.40;;;;;;;;;;5069127;28;20020;-73
2022/03/07 07:14:09;;;;;;;22.35;14.80;;;;;;;;;;5064921;28;20240;-71
2022/03/07 07:16:34;;;;;;;24.63;15.27;;;;;;;;;;5064831;28;20082;-73
2022/03/07 07:18:59;;;;;;;25.95;15.32;;;;;;;;;;5066597;28;20099;-73
2022/03/07 07:21:24;;;;;;;24.42;14.70;;;;;;;;;;5064031;28;20023;-72
2022/03/07 07:23:49;;;;;;;21.33;13.90;;;;;;;;;;5064349;28;20020;-73
2022/03/07 07:26:15;;;;;;;29.27;14.98;;;;;;;;;;5067990;28;20239;-71
2022/03/07 07:28:40;;;;;;;23.83;13.90;;;;;;;;;;5063094;28;20074;-73
2022/03/07 07:31:05;;;;;;;20.92;13.95;;;;;;;;;;5066374;28;20087;-73
2022/03/07 07:33:30;;;;;;;21.35;13.82;;;;;;;;;;5067443;28;20466;-73
2022/03/07 07:35:56;;;;;;;24.48;14.35;;;;;;;;;;5068132;28;20063;-73
2022/03/07 07:38:23;;;;;;;22.42;14.30;;;;;;;;;;5065991;28;20024;-73
2022/03/07 07:40:49;;;;;;;27.83;14.13;;;;;;;;;;5064739;28;20024;-72
2022/03/07 07:43:14;;;;;;;23.23;14.68;;;;;;;;;;5061488;28;20393;-73
2022/03/07 07:45:40;;;;;;;24.55;13.90;;;;;;;;;;5062687;28;20439;-71
2022/03/07 07:48:05;;;;;;;21.73;12.95;;;;;;;;;;5065614;28;20060;-71
2022/03/07 07:50:30;;;;;;;24.70;13.85;;;;;;;;;;5065274;28;20024;-71
2022/03/07 07:52:56;;;;;;;22.92;13.85;;;;;;;;;;5064382;28;20033;-71
2022/03/07 07:55:21;;;;;;;28.00;13.90;;;;;;;;;;5063611;28;20525;-71
2022/03/07 07:57:46;;;;;;;20.25;13.40;;;;;;;;;;5064006;28;20103;-71
2022/03/07 08:00:15;;;;;;;25.77;13.60;;;;;;;;;;5063196;28;20016;-73
2022/03/07 08:02:40;;;;;;;20.35;12.60;;;;;;;;;;5067062;28;20087;-73
2022/03/07 08:05:06;;;;;;;21.77;13.77;;;;;;;;;;5065203;28;20112;-73
2022/03/07 08:07:31;;;;;;;21.30;14.13;;;;;;;;;;5064781;28;20020;-72
2022/03/07 08:09:56;;;;;;;21.83;13.77;;;;;;;;;;5064440;28;20020;-72
2022/03/07 08:12:21;;;;;;;19.60;12.85;;;;;;;;;;5064358;28;20017;-72
2022/03/07 08:14:47;;;;;;;21.50;13.32;;;;;;;;;;5064055;28;20032;-73
2022/03/07 08:17:12;;;;;;;24.70;14.00;;;;;;;;;;5063628;28;20025;-72
2022/03/07 08:19:37;;;;;;;24.88;13.95;;;;;;;;;;5065016;28;20119;-72
2022/03/07 08:22:03;;;;;;;24.52;13.65;;;;;;;;;;5066326;28;20051;-72
2022/03/07 08:24:28;;;;;;;22.92;13.10;;;;;;;;;;5066974;28;20031;-72
2022/03/07 08:26:53;;;;;;;20.52;13.52;;;;;;;;;;5067741;28;20520;-72
2022/03/07 08:29:19;;;;;;;19.85;13.13;;;;;;;;;;5063503;28;20035;-72
2022/03/07 08:31:44;;;;;;;22.73;13.80;;;;;;;;;;5065825;28;20403;-72
2022/03/07 08:34:09;;;;;;;23.08;13.82;;;;;;;;;;5064288;28;20031;-72
2022/03/07 08:36:34;;;;;;;22.65;13.02;;;;;;;;;;5065183;28;20389;-73
2022/03/07 08:38:59;;;;;;;19.02;13.05;;;;;;;;;;5063171;28;20021;-72
2022/03/07 08:41:25;;;;;;;20.60;13.55;;;;;;;;;;5063807;28;20100;-72
2022/03/07 08:43:51;;;;;;;20.55;13.57;;;;;;;;;;5066667;28;20032;-72
2022/03/07 08:46:16;;;;;;;23.30;14.02;;;;;;;;;;5060944;28;20029;-72
2022/03/07 08:48:42;;;;;;;21.60;14.18;;;;;;;;;;5067182;28;20024;-72
2022/03/07 08:51:07;;;;;;;22.17;14.25;;;;;;;;;;5065620;28;20044;-72
2022/03/07 08:53:32;;;;;;;22.08;13.60;;;;;;;;;;5061144;28;20017;-72
2022/03/07 08:55:57;;;;;;;22.48;13.23;;;;;;;;;;5063293;28;20017;-72
2022/03/07 08:58:23;;;;;;;19.90;13.35;;;;;;;;;;5065316;28;20028;-72
2022/03/07 09:00:48;;;;;;;21.90;14.05;;;;;;;;;;5061883;28;20449;-72
2022/03/07 09:03:13;;;;;;;23.88;13.18;;;;;;;;;;5060742;28;20048;-72
2022/03/07 09:05:38;;;;;;;21.63;13.23;;;;;;;;;;5066950;28;20027;-73
2022/03/07 09:08:04;;;;;;;20.55;12.50;;;;;;;;;;5062260;28;20046;-73
2022/03/07 09:10:29;;;;;;;22.40;13.57;;;;;;;;;;5065464;28;20483;-73
2022/03/07 09:12:54;;;;;;;21.10;14.38;;;;;;;;;;5066215;28;20020;-71
2022/03/07 09:15:19;;;;;;;30.33;13.50;;;;;;;;;;5062437;28;20024;-72
2022/03/07 09:17:45;;;;;;;20.83;13.63;;;;;;;;;;5066638;28;20024;-73
2022/03/07 09:20:12;;;;;;;22.55;13.48;;;;;;;;;;5065172;28;20055;-73
2022/03/07 09:22:38;;;;;;;20.45;13.50;;;;;;;;;;5065062;28;20036;-72
2022/03/07 09:25:03;;;;;;;27.15;13.63;;;;;;;;;;5065631;28;20044;-73
2022/03/07 09:27:28;;;;;;;22.45;13.35;;;;;;;;;;5064598;28;20358;-73
2022/03/07 09:29:54;;;;;;;22.63;13.40;;;;;;;;;;5051625;28;20032;-73
2022/03/07 09:32:19;;;;;;;23.38;13.73;;;;;;;;;;5064693;28;20041;-72
2022/03/07 09:34:44;;;;;;;23.95;14.82;;;;;;;;;;5064501;28;20027;-72
2022/03/07 09:37:10;;;;;;;21.17;13.30;;;;;;;;;;5063662;28;20028;-72
2022/03/07 09:39:35;;;;;;;22.88;13.65;;;;;;;;;;5064107;28;20456;-72
2022/03/07 09:42:00;;;;;;;21.08;14.10;;;;;;;;;;5063405;28;20496;-73
2022/03/07 09:44:27;;;;;;;22.60;14.48;;;;;;;;;;5060300;28;20112;-72
2022/03/07 09:46:52;;;;;;;24.55;13.77;;;;;;;;;;5062836;28;20043;-73
2022/03/07 09:49:18;;;;;;;21.92;12.93;;;;;;;;;;5044862;28;20024;-72
2022/03/07 09:51:44;;;;;;;22.90;13.80;;;;;;;;;;5061316;28;20046;-73
2022/03/07 09:54:09;;;;;;;22.85;13.10;;;;;;;;;;5062573;28;20055;-73
2022/03/07 09:56:34;;;;;;;23.20;14.07;;;;;;;;;;5062635;28;20552;-73
2022/03/07 09:58:59;;;;;;;22.23;13.73;;;;;;;;;;5062456;28;20024;-73
2022/03/07 10:01:25;;;;;;;19.80;13.60;;;;;;;;;;5058977;28;20055;-72
2022/03/07 10:03:53;;;;;;;24.67;13.27;;;;;;;;;;5062033;28;20033;-72
2022/03/07 10:06:18;;;;;;;23.02;13.00;;;;;;;;;;5063314;28;20023;-73
2022/03/07 10:08:50;;;;;;;18.75;12.95;;;;;;;;;;5061194;28;20021;-73
2022/03/07 10:11:15;;;;;;;17.42;12.48;;;;;;;;;;5060361;28;20021;-73
2022/03/07 10:13:48;;;;;;;22.40;13.85;;;;;;;;;;5062644;28;20016;-72
2022/03/07 10:16:13;;;;;;;25.98;13.07;;;;;;;;;;5058879;28;20066;-73
2022/03/07 10:18:47;;;;;;;19.77;12.35;;;;;;;;;;5061061;28;20021;-72
2022/03/07 10:21:12;;;;;;;21.15;13.25;;;;;;;;;;5063308;28;20473;-73
2022/03/07 10:23:37;;;;;;;18.90;11.80;;;;;;;;;;5062567;28;20105;-72
2022/03/07 10:26:06;;;;;;;18.95;13.40;;;;;;;;;;5062212;28;20020;-72
2022/03/07 10:28:35;;;;;;;19.60;11.85;;;;;;;;;;5062307;28;20016;-72
2022/03/07 10:31:10;;;;;;;18.70;12.93;;;;;;;;;;5057175;28;20041;-72
2022/03/07 10:33:36;;;;;;;19.85;12.70;;;;;;;;;;5064324;28;20043;-72
2022/03/07 10:36:01;;;;;;;20.55;12.40;;;;;;;;;;5057256;28;20024;-72
2022/03/07 10:38:28;;;;;;;25.90;12.75;;;;;;;;;;5059625;28;20036;-72
2022/03/07 10:40:53;;;;;;;20.63;12.95;;;;;;;;;;5063924;28;20027;-72
2022/03/07 10:43:19;;;;;;;20.23;13.35;;;;;;;;;;5061542;28;20024;-73
2022/03/07 10:45:48;;;;;;;20.80;12.68;;;;;;;;;;5064328;28;20031;-72
2022/03/07 10:48:13;;;;;;;22.70;12.82;;;;;;;;;;5062709;28;20400;-72
2022/03/07 10:50:38;;;;;;;23.48;13.38;;;;;;;;;;5060322;28;20024;-72
2022/03/07 10:53:05;;;;;;;20.65;12.18;;;;;;;;;;5061099;28;20525;-72
2022/03/07 10:55:31;;;;;;;21.70;13.63;;;;;;;;;;5060712;28;20151;-72
2022/03/07 10:58:11;;;;;;;19.90;11.95;;;;;;;;;;5061490;28;20047;-73
2022/03/07 11:00:54;;;;;;;21.30;12.45;;;;;;;;;;5075687;28;20066;-72
2022/03/07 11:03:24;;;;;;;21.67;13.07;;;;;;;;;;5062613;28;20017;-73
2022/03/07 11:05:50;;;;;;;19.83;12.02;;;;;;;;;;5062507;28;20016;-73
2022/03/07 11:08:15;;;;;;;17.25;12.23;;;;;;;;;;5065293;28;20268;-72
2022/03/07 11:10:45;;;;;;;18.67;12.07;;;;;;;;;;5062277;28;20016;-72
2022/03/07 11:13:12;;;;;;;20.23;12.57;;;;;;;;;;5074063;28;20024;-72
2022/03/07 11:15:37;;;;;;;18.23;12.52;;;;;;;;;;5062254;28;20095;-72
2022/03/07 11:18:04;;;;;;;19.02;12.20;;;;;;;;;;5063696;28;20481;-72
2022/03/07 11:20:29;;;;;;;20.15;12.27;;;;;;;;;;5043416;28;20032;-73
2022/03/07 11:22:54;;;;;;;23.52;12.88;;;;;;;;;;5059493;28;20013;-72
2022/03/07 11:25:20;;;;;;;20.35;11.93;;;;;;;;;;5029226;28;20048;-72
2022/03/07 11:27:45;;;;;;;19.70;12.25;;;;;;;;;;5050897;28;20098;-73
2022/03/07 11:30:14;;;;;;;18.08;12.15;;;;;;;;;;5051166;28;20169;-72
2022/03/07 11:32:39;;;;;;;18.40;12.13;;;;;;;;;;5067853;28;20159;-72
2022/03/07 11:35:05;;;;;;;16.23;11.27;;;;;;;;;;5062421;28;20100;-72
2022/03/07 11:37:31;;;;;;;17.90;10.63;;;;;;;;;;5053287;28;20028;-72
2022/03/07 11:39:58;;;;;;;17.80;10.55;;;;;;;;;;5063044;28;20166;-73
2022/03/07 11:42:23;;;;;;;21.45;13.10;;;;;;;;;;5064136;28;20028;-72
2022/03/07 11:44:50;;;;;;;19.10;11.75;;;;;;;;;;5068703;28;20128;-72
2022/03/07 11:47:19;;;;;;;18.63;11.77;;;;;;;;;;5079393;28;20051;-72
2022/03/07 11:49:45;;;;;;;19.65;12.65;;;;;;;;;;5051521;28;20653;-72
2022/03/07 11:52:14;;;;;;;17.60;11.55;;;;;;;;;;5062535;28;20023;-72
2022/03/07 11:54:50;;;;;;;20.35;12.07;;;;;;;;;;5076716;28;20104;-72
2022/03/07 11:57:16;;;;;;;20.17;12.32;;;;;;;;;;5060873;28;20013;-73
2022/03/07 11:59:42;;;;;;;16.90;11.55;;;;;;;;;;5063573;28;20021;-72
2022/03/07 12:02:07;;;;;;;22.23;13.23;;;;;;;;;;5054316;28;20027;-72
2022/03/07 12:04:43;;;;;;;18.08;12.00;;;;;;;;;;5064694;28;20028;-73
2022/03/07 12:07:08;;;;;;;22.48;12.55;;;;;;;;;;5050613;28;20173;-73
2022/03/07 12:09:35;;;;;;;16.95;11.82;;;;;;;;;;5067935;28;20091;-73
2022/03/07 12:12:06;;;;;;;19.00;13.15;;;;;;;;;;5064199;28;20029;-73
2022/03/07 12:14:33;;;;;;;17.42;11.73;;;;;;;;;;5061183;28;20035;-73
2022/03/07 12:17:00;;;;;;;19.88;11.68;;;;;;;;;;5064526;28;20021;-73
2022/03/07 12:19:26;;;;;;;16.25;11.05;;;;;;;;;;5065310;28;20529;-73
2022/03/07 12:21:51;;;;;;;20.92;11.02;;;;;;;;;;5061915;28;20013;-73
2022/03/07 12:24:18;;;;;;;17.27;11.85;;;;;;;;;;5061048;28;20024;-73
2022/03/07 12:26:47;;;;;;;25.35;13.18;;;;;;;;;;5064477;28;20610;-73
2022/03/07 12:29:13;;;;;;;20.30;11.40;;;;;;;;;;5061677;28;20017;-73
2022/03/07 12:31:38;;;;;;;20.33;11.88;;;;;;;;;;5062694;28;20041;-74
2022/03/07 12:34:06;;;;;;;18.27;12.25;;;;;;;;;;5063092;28;20119;-73
2022/03/07 12:36:32;;;;;;;16.50;11.40;;;;;;;;;;5060297;28;20016;-73
2022/03/07 12:38:58;;;;;;;17.17;12.02;;;;;;;;;;5063116;28;20024;-73
2022/03/07 12:41:28;;;;;;;19.50;12.57;;;;;;;;;;5059455;28;20016;-73
2022/03/07 12:43:53;;;;;;;18.30;11.43;;;;;;;;;;5066697;28;20024;-72
2022/03/07 12:46:18;;;;;;;15.90;11.35;;;;;;;;;;5061135;28;20028;-73
2022/03/07 12:48:44;;;;;;;19.00;13.05;;;;;;;;;;5059274;28;20418;-73
2022/03/07 12:51:11;;;;;;;22.45;12.30;;;;;;;;;;5061799;28;20024;-74
2022/03/07 12:53:54;;;;;;;19.50;12.73;;;;;;;;;;5060092;28;20024;-74
2022/03/07 12:56:22;;;;;;;18.80;12.15;;;;;;;;;;5065782;28;20023;-74
2022/03/07 12:58:57;;;;;;;17.92;11.07;;;;;;;;;;5063162;28;20021;-74
2022/03/07 13:01:23;;;;;;;25.65;12.73;;;;;;;;;;5059572;28;20077;-73
2022/03/07 13:03:51;;;;;;;22.85;12.13;;;;;;;;;;5048556;28;20028;-73
2022/03/07 13:06:20;;;;;;;17.52;11.80;;;;;;;;;;5064705;28;20067;-73
2022/03/07 13:08:52;;;;;;;17.33;12.05;;;;;;;;;;5063470;28;20047;-73
2022/03/07 13:11:38;;;;;;;17.88;11.63;;;;;;;;;;5063646;28;20060;-73
2022/03/07 13:14:04;;;;;;;24.40;12.85;;;;;;;;;;5060758;28;20031;-73
2022/03/07 13:16:31;;;;;;;18.70;12.52;;;;;;;;;;5063419;28;20103;-72
2022/03/07 13:18:57;;;;;;;19.63;12.43;;;;;;;;;;5063438;28;20920;-73
2022/03/07 13:21:23;;;;;;;19.13;12.15;;;;;;;;;;5063648;28;20096;-73
2022/03/07 13:23:48;;;;;;;17.92;12.02;;;;;;;;;;5060045;28;20471;-74
2022/03/07 13:26:21;;;;;;;18.23;12.65;;;;;;;;;;5063121;28;20017;-73
2022/03/07 13:28:46;;;;;;;20.83;12.73;;;;;;;;;;5046085;28;20036;-73
2022/03/07 13:31:11;;;;;;;19.20;12.57;;;;;;;;;;5062171;28;20032;-73
2022/03/07 13:33:37;;;;;;;18.80;12.48;;;;;;;;;;5064341;28;20039;-72
2022/03/07 13:36:12;;;;;;;18.25;13.05;;;;;;;;;;5066562;28;20031;-73
2022/03/07 13:38:38;;;;;;;21.45;13.75;;;;;;;;;;5045029;28;20107;-73
2022/03/07 13:41:07;;;;;;;16.35;11.82;;;;;;;;;;5062103;28;20369;-73
2022/03/07 13:43:34;;;;;;;21.58;12.57;;;;;;;;;;5063199;28;20020;-73
2022/03/07 13:46:00;;;;;;;16.13;12.15;;;;;;;;;;5060576;28;20020;-73
2022/03/07 13:48:25;;;;;;;16.45;11.70;;;;;;;;;;5045500;28;20017;-73
2022/03/07 13:50:52;;;;;;;19.00;12.10;;;;;;;;;;5058899;28;20139;-72
2022/03/07 13:53:19;;;;;;;15.20;11.98;;;;;;;;;;5061855;28;20116;-74
2022/03/07 13:55:45;;;;;;;15.07;12.05;;;;;;;;;;5061755;28;20012;-74
2022/03/07 13:58:16;;;;;;;15.32;11.88;;;;;;;;;;5060613;28;20510;-72
2022/03/07 14:00:42;;;;;;;15.50;11.65;;;;;;;;;;5062660;28;20093;-73
2022/03/07 14:03:07;;;;;;;14.60;11.90;;;;;;;;;;5064967;28;20414;-73
2022/03/07 14:05:40;;;;;;;18.33;11.98;;;;;;;;;;5047908;28;20047;-73
2022/03/07 14:08:05;;;;;;;16.55;12.05;;;;;;;;;;5061948;28;20017;-73